Weather at Midlake Airport

Public forecast

Using degrees Fahrenheit for public forecast. Weather courtesy of forecast.io.

Closest aviation weather report (METAR) to Midlake Airport

Closest report is Stinson Municipal Airport, 8.1 nm (15.1 km) WNW.

2024/06/19 03:53 (retrieved 14 minutes ago)

KSSF 190353Z AUTO 10010G22KT 10SM CLR 27/21 A2986 RMK AO2 PK WND 10027/0305 SLP097 T02720211

Closest aviation forecast (TAF) to Midlake Airport

Forecast is more than 12 hours old.

Closest forecast is Randolph Air Force Base, 16.0 nm (29.6 km) N.

2024/06/18 10:03 (retrieved 18 hours ago)

TAF KRND 180945Z 1810/1916 13008KT 9999 SCT008 OVC015 QNH2975INS BECMG 1814/1815 12012KT 9999 BKN025 OVC040 QNH2974INS BECMG 1817/1818 12015G20KT 9999 VCSH OVC035 QNH2972INS BECMG 1820/1821 10015G22KT 9000 -SHRA SCT025 BKN040 QNH2970INS BECMG 1902/1903 09012KT 9000 -SHRA SCT010 BKN017 BKN025 QNH2980INS BECMG 1911/1912 05015KT 8000 BR BKN009 OVC017 QNH2985INS BECMG 1914/1915 05015G20KT 9999 NSW BKN010 OVC017 520053 QNH2990INS TX33/1822Z TN23/1811Z